Archival Weather

Heathrow

London, United Kingdom (EGLL)

Report from: Tuesday, September 19, 2023 9:20 AM BST
Current time: Tuesday, July 16, 2024 5:33 PM BST

Current weather – Weather history – Daily summaries
Weather forecast

Present weatherRecent rain, REDZ
Temperature17.0°C (62.6°F)
Dew point13.0°C (55.4°F)
Winds 16 kts (8.2 m/s, 18.4 mph) Southwest (230°)
Wind gusts 26 kts (13.4 m/s, 29.9 mph)
Visibility6.2 mi. (10 km)
Clouds Ceiling: Broken clouds 1,400 ft. (427 m)
Scattered clouds 1,500 ft. (457 m)
Broken clouds 2,000 ft. (610 m)
Altimeter29.68 in.Hg (1005 mB)
Relative humidity77 %
Density altitude724 ft. (221 m)
Remarks Fully automated report
Flight conditions Marginal Visual Meteorological Conditions
Raw dataEGLL 190820Z AUTO 23016G26KT 9999 SCT015 BKN020 17/13 Q1005 RERA REDZ TEMPO BKN014
An error has occurred. This application may no longer respond until reloaded. Reload 🗙